createdAt,value
2022-09-24T00:00:53.254Z,1.7
2022-09-24T00:02:03.013Z,2.5
2022-09-24T00:03:12.712Z,1.9
2022-09-24T00:04:22.404Z,1.8
2022-09-24T00:05:31.099Z,2.1
2022-09-24T00:06:40.771Z,2
2022-09-24T00:07:49.496Z,1.9
2022-09-24T00:08:59.183Z,2
2022-09-24T00:10:08.853Z,2.2
2022-09-24T00:11:17.683Z,1.7
2022-09-24T00:12:27.343Z,2
2022-09-24T00:13:35.044Z,2.1
2022-09-24T00:14:43.742Z,1.5
2022-09-24T00:15:53.477Z,1.6
2022-09-24T00:17:02.113Z,1.5
2022-09-24T00:18:11.829Z,1.4
2022-09-24T00:19:21.535Z,1.4
2022-09-24T00:20:29.223Z,1.1
2022-09-24T00:21:38.966Z,1.6
2022-09-24T00:22:46.685Z,1.4
2022-09-24T00:23:55.391Z,1.3
2022-09-24T00:25:05.117Z,1.9
2022-09-24T00:26:13.798Z,1.6
2022-09-24T00:27:23.517Z,1.7
2022-09-24T00:28:32.190Z,1.8
2022-09-24T00:29:39.979Z,1.7
2022-09-24T00:30:49.720Z,1.3
2022-09-24T00:31:58.431Z,1.4
2022-09-24T00:33:08.174Z,1.7
2022-09-24T00:34:17.845Z,1.6
2022-09-24T00:35:26.551Z,1.6
2022-09-24T00:36:36.216Z,1.6
2022-09-24T00:37:45.897Z,1.5
2022-09-24T00:38:54.658Z,1.5
2022-09-24T00:40:04.363Z,1.5
2022-09-24T00:41:13.054Z,1.6
2022-09-24T00:42:22.744Z,1.8
2022-09-24T00:43:32.457Z,1.4
2022-09-24T00:44:42.145Z,1.2
2022-09-24T00:45:51.828Z,1.9
2022-09-24T00:47:00.583Z,1.6
2022-09-24T00:48:22.481Z,1.6
2022-09-24T00:49:32.151Z,1.9
2022-09-24T00:50:41.855Z,1.9
2022-09-24T00:51:49.547Z,1.7
2022-09-24T00:52:59.260Z,1.5
2022-09-24T00:54:08.042Z,1.5
2022-09-24T00:55:15.667Z,1.5
2022-09-24T00:56:25.354Z,1.4
2022-09-24T00:57:34.009Z,1.7
2022-09-24T00:58:42.686Z,1.8
2022-09-24T00:59:52.499Z,2.1
2022-09-24T01:01:01.264Z,2
2022-09-24T01:02:10.975Z,1.7
2022-09-24T01:03:19.509Z,2.6
2022-09-24T01:04:28.230Z,2
2022-09-24T01:05:38.965Z,1.6
2022-09-24T01:06:48.669Z,2.2
2022-09-24T01:07:58.362Z,1.6
2022-09-24T01:09:08.084Z,1.6
2022-09-24T01:10:18.747Z,1.4
2022-09-24T01:11:26.473Z,1.5
2022-09-24T01:12:35.197Z,1.6
2022-09-24T01:13:44.813Z,1.5
2022-09-24T01:14:53.505Z,1.6
2022-09-24T01:16:03.223Z,1.5
2022-09-24T01:17:11.425Z,1.3
2022-09-24T01:18:21.099Z,1.6
2022-09-24T01:19:29.757Z,1.5
2022-09-24T01:20:38.438Z,1.6
2022-09-24T01:21:48.109Z,1.6
2022-09-24T01:22:57.807Z,1.5
2022-09-24T01:24:06.504Z,1.3
2022-09-24T01:25:16.106Z,1.4
2022-09-24T01:26:23.760Z,1.3
2022-09-24T01:27:40.207Z,1.6
2022-09-24T01:28:49.876Z,1.1
2022-09-24T01:29:59.543Z,1.5
2022-09-24T01:31:09.282Z,1.2
2022-09-24T01:32:21.644Z,1.4
2022-09-24T01:33:31.345Z,1.6
2022-09-24T01:34:41.038Z,1.4
2022-09-24T01:35:48.734Z,1.4
2022-09-24T01:36:58.393Z,1.5
2022-09-24T01:38:08.066Z,1.1
2022-09-24T01:39:15.699Z,1.6
2022-09-24T01:40:25.450Z,1.3
2022-09-24T01:41:34.057Z,1.3
2022-09-24T01:42:43.746Z,1.4
2022-09-24T01:43:53.425Z,1.1
2022-09-24T01:45:01.159Z,1.5
2022-09-24T01:46:10.895Z,1.2
2022-09-24T01:47:20.499Z,1.6
2022-09-24T01:48:28.156Z,1.3
2022-09-24T01:49:37.812Z,1.1
2022-09-24T01:50:46.477Z,1
2022-09-24T01:51:56.156Z,1.2
2022-09-24T01:53:05.808Z,1.4
2022-09-24T01:54:15.565Z,1.1
2022-09-24T01:55:25.209Z,1.3
2022-09-24T01:56:34.874Z,1.1
2022-09-24T01:57:44.558Z,1.3
2022-09-24T01:58:54.238Z,1.4
2022-09-24T02:00:02.915Z,1.1
2022-09-24T02:01:11.600Z,1.2
2022-09-24T02:02:21.305Z,1.8
2022-09-24T02:03:29.118Z,1
2022-09-24T02:04:38.772Z,1.3
2022-09-24T02:05:49.427Z,1
2022-09-24T02:06:57.078Z,1.3
2022-09-24T02:08:06.747Z,1.1
2022-09-24T02:09:16.424Z,1.1
2022-09-24T02:10:25.111Z,1.1
2022-09-24T02:11:34.749Z,1.2
2022-09-24T02:12:43.457Z,1.1
2022-09-24T02:13:53.102Z,1
2022-09-24T02:15:01.835Z,1.2
2022-09-24T02:16:09.564Z,1.1
2022-09-24T02:17:19.160Z,1.2
2022-09-24T02:18:28.833Z,1.3
2022-09-24T02:19:37.495Z,1.3
2022-09-24T02:20:47.232Z,1
2022-09-24T02:21:54.904Z,1
2022-09-24T02:23:04.550Z,1.1
2022-09-24T02:24:13.209Z,1
2022-09-24T02:25:22.878Z,1.4
2022-09-24T02:26:32.655Z,1.1
2022-09-24T02:27:41.230Z,1.3
2022-09-24T02:28:49.912Z,1.3
2022-09-24T02:29:59.581Z,1
2022-09-24T02:31:07.243Z,1.2
2022-09-24T02:32:16.925Z,1.2
2022-09-24T02:33:25.607Z,1.3
2022-09-24T02:34:34.268Z,1.3
2022-09-24T02:35:43.954Z,1.1
2022-09-24T02:36:52.606Z,1
2022-09-24T02:38:06.079Z,0.9
2022-09-24T02:39:11.932Z,1.1
2022-09-24T02:40:21.625Z,1
2022-09-24T02:41:31.244Z,0.9
2022-09-24T02:42:41.455Z,1.2
2022-09-24T02:43:48.694Z,0.9
2022-09-24T02:44:58.357Z,1
2022-09-24T02:46:07.043Z,1.1
2022-09-24T02:47:16.676Z,1
2022-09-24T02:48:26.330Z,1.1
2022-09-24T02:49:36.014Z,1.2
2022-09-24T02:50:46.668Z,1
2022-09-24T02:51:56.326Z,1.1
2022-09-24T02:53:09.785Z,1.1
2022-09-24T02:54:19.452Z,1.1
2022-09-24T02:55:27.141Z,1
2022-09-24T02:56:36.794Z,1
2022-09-24T02:57:46.469Z,1
2022-09-24T02:58:54.116Z,0.9
2022-09-24T03:00:03.786Z,1.2
2022-09-24T03:01:12.483Z,1
2022-09-24T03:02:20.295Z,1.2
2022-09-24T03:03:29.861Z,1.3
2022-09-24T03:04:38.527Z,0.9
2022-09-24T03:05:48.213Z,0.8
2022-09-24T03:06:58.045Z,1.1
2022-09-24T03:08:07.746Z,1.3
2022-09-24T03:09:15.350Z,1.2
2022-09-24T03:10:25.012Z,1
2022-09-24T03:11:33.672Z,1
2022-09-24T03:12:43.373Z,0.9
2022-09-24T03:13:52.045Z,0.8
2022-09-24T03:14:59.695Z,1
2022-09-24T03:16:09.407Z,1.3
2022-09-24T03:17:19.033Z,0.9
2022-09-24T03:18:28.732Z,0.8
2022-09-24T03:19:38.376Z,1
2022-09-24T03:20:47.043Z,1.1
2022-09-24T03:21:56.701Z,1.1
2022-09-24T03:23:06.349Z,1.5
2022-09-24T03:24:16.042Z,1.6
2022-09-24T03:25:24.701Z,1.6
2022-09-24T03:26:32.344Z,1.8
2022-09-24T03:27:42.021Z,2.1
2022-09-24T03:28:51.699Z,2
2022-09-24T03:30:01.395Z,2
2022-09-24T03:31:10.064Z,2
2022-09-24T03:32:19.688Z,1.8
2022-09-24T03:33:28.346Z,1.2
2022-09-24T03:34:38.026Z,1.1
2022-09-24T03:35:46.720Z,1
2022-09-24T03:36:55.386Z,1.2
2022-09-24T03:38:05.048Z,0.8
2022-09-24T03:39:13.703Z,1
2022-09-24T03:40:22.481Z,1.1
2022-09-24T03:41:32.082Z,1
2022-09-24T03:42:39.743Z,1.3
2022-09-24T03:43:49.430Z,1.1
2022-09-24T03:44:59.094Z,1
2022-09-24T03:46:07.896Z,0.9
2022-09-24T03:47:17.432Z,1
2022-09-24T03:48:25.094Z,0.9
2022-09-24T03:49:33.756Z,1
2022-09-24T03:50:43.432Z,1.1
2022-09-24T03:51:52.260Z,1
2022-09-24T03:53:01.938Z,1.2
2022-09-24T03:54:11.651Z,1.1
2022-09-24T03:55:20.260Z,1.1
2022-09-24T03:56:29.917Z,1.3
2022-09-24T03:57:37.572Z,1.3
2022-09-24T03:58:47.318Z,1.1
2022-09-24T03:59:56.924Z,1.3
2022-09-24T04:01:05.593Z,1
2022-09-24T04:02:15.275Z,1.1
2022-09-24T04:03:24.052Z,1.2
2022-09-24T04:04:31.677Z,1.3
2022-09-24T04:05:41.344Z,1.4
2022-09-24T04:06:50.003Z,1.1
2022-09-24T04:07:58.655Z,1.2
2022-09-24T04:09:08.319Z,1.5
2022-09-24T04:10:17.112Z,1
2022-09-24T04:11:26.779Z,1.1
2022-09-24T04:12:37.430Z,1.2
2022-09-24T04:13:46.078Z,0.9
2022-09-24T04:14:55.764Z,1.3
2022-09-24T04:16:05.113Z,1
2022-09-24T04:17:14.756Z,1.1
2022-09-24T04:18:24.438Z,0.9
2022-09-24T04:19:33.088Z,1
2022-09-24T04:20:42.761Z,1.2
2022-09-24T04:21:51.442Z,1.2
2022-09-24T04:23:00.100Z,1.1
2022-09-24T04:24:09.783Z,1.3
2022-09-24T04:25:19.449Z,1.1
2022-09-24T04:26:28.090Z,0.8
2022-09-24T04:27:37.808Z,1
2022-09-24T04:28:46.463Z,1.2
2022-09-24T04:29:56.197Z,1.1
2022-09-24T04:31:04.972Z,0.9
2022-09-24T04:32:14.523Z,1
2022-09-24T04:33:24.219Z,1
2022-09-24T04:34:40.598Z,1.1
2022-09-24T04:35:49.241Z,0.9
2022-09-24T04:36:58.898Z,0.9
2022-09-24T04:38:07.558Z,1.2
2022-09-24T04:39:17.268Z,1.1
2022-09-24T04:40:25.962Z,1
2022-09-24T04:41:34.570Z,1.4
2022-09-24T04:42:44.312Z,1.3
2022-09-24T04:43:56.507Z,1.3
2022-09-24T04:45:05.205Z,1.2
2022-09-24T04:46:14.889Z,1.2
2022-09-24T04:47:23.514Z,1.4
2022-09-24T04:48:33.193Z,1.3
2022-09-24T04:49:42.976Z,1.6
2022-09-24T04:50:55.299Z,1.5
2022-09-24T04:52:09.315Z,1.7
2022-09-24T04:53:18.098Z,1.5
2022-09-24T04:54:27.767Z,1.6
2022-09-24T04:55:37.434Z,1.3
2022-09-24T04:56:46.126Z,1.6
2022-09-24T04:57:55.785Z,1.7
2022-09-24T04:59:04.460Z,1.5
2022-09-24T05:00:13.130Z,1.5
2022-09-24T05:01:23.568Z,1.4
2022-09-24T05:02:32.231Z,1.9
2022-09-24T05:03:41.808Z,1.3
2022-09-24T05:04:51.482Z,1.3
2022-09-24T05:06:01.139Z,1.5
2022-09-24T05:07:09.834Z,1.4
2022-09-24T05:08:19.536Z,1.2
2022-09-24T05:09:27.194Z,1.1
2022-09-24T05:10:34.846Z,1.3
2022-09-24T05:11:44.577Z,1.1
2022-09-24T05:12:54.246Z,1
2022-09-24T05:14:04.045Z,0.8
2022-09-24T05:15:12.699Z,1.3
2022-09-24T05:16:21.382Z,0.9
2022-09-24T05:17:31.112Z,1
2022-09-24T05:18:39.687Z,0.9
2022-09-24T05:19:49.378Z,1.2
2022-09-24T05:20:59.236Z,0.9
2022-09-24T05:22:06.721Z,1
2022-09-24T05:23:16.398Z,1.1
2022-09-24T05:24:24.073Z,1
2022-09-24T05:25:33.623Z,1.2
2022-09-24T05:26:43.310Z,0.9
2022-09-24T05:27:52.977Z,0.9
2022-09-24T05:29:02.642Z,1
2022-09-24T05:30:12.303Z,0.9
2022-09-24T05:31:22.149Z,1.2
2022-09-24T05:32:31.640Z,1.2
2022-09-24T05:33:39.288Z,1.1
2022-09-24T05:34:46.943Z,1.2
2022-09-24T05:35:58.307Z,1.1
2022-09-24T05:37:07.014Z,1.1
2022-09-24T05:38:16.165Z,1.1
2022-09-24T05:39:27.981Z,1
2022-09-24T05:40:34.717Z,1.4
2022-09-24T05:41:44.362Z,1.1
2022-09-24T05:42:54.035Z,1
2022-09-24T05:44:02.687Z,1.3
2022-09-24T05:45:12.348Z,1
2022-09-24T05:46:21.042Z,1.2
2022-09-24T05:47:29.693Z,1.4
2022-09-24T05:48:39.444Z,1.1
2022-09-24T05:49:47.086Z,0.9
2022-09-24T05:50:56.754Z,1.1
2022-09-24T05:52:06.414Z,0.9
2022-09-24T05:53:16.119Z,1
2022-09-24T05:54:26.772Z,0.8
2022-09-24T05:55:36.414Z,0.8
2022-09-24T05:56:46.128Z,0.9
2022-09-24T05:57:55.776Z,1.1
2022-09-24T05:59:05.475Z,0.8
2022-09-24T06:00:15.339Z,0.9
2022-09-24T06:01:25.076Z,1
2022-09-24T06:02:32.685Z,0.8
2022-09-24T06:03:42.278Z,1.1
2022-09-24T06:04:50.936Z,1.2
2022-09-24T06:05:59.639Z,0.9
2022-09-24T06:07:09.284Z,1.1
2022-09-24T06:08:17.969Z,1.2
2022-09-24T06:09:27.647Z,1.1
2022-09-24T06:10:37.319Z,1.1
2022-09-24T06:11:46.118Z,0.9
2022-09-24T06:12:56.802Z,1.1
2022-09-24T06:14:05.437Z,1.3
2022-09-24T06:15:15.099Z,1.1
2022-09-24T06:16:24.831Z,1.1
2022-09-24T06:17:33.588Z,1
2022-09-24T06:18:43.247Z,1.3
2022-09-24T06:19:51.918Z,0.9
2022-09-24T06:21:00.580Z,0.8
2022-09-24T06:22:10.261Z,1.1
2022-09-24T06:23:19.959Z,1.1
2022-09-24T06:24:28.644Z,1.4
2022-09-24T06:25:38.283Z,1.3
2022-09-24T06:26:45.937Z,1.1
2022-09-24T06:27:55.603Z,0.9
2022-09-24T06:29:05.536Z,1.1
2022-09-24T06:30:13.936Z,1.2
2022-09-24T06:31:23.644Z,1
2022-09-24T06:32:32.272Z,1
2022-09-24T06:33:40.949Z,1.2
2022-09-24T06:34:53.334Z,1.1
2022-09-24T06:36:01.311Z,1.1
2022-09-24T06:37:11.003Z,1.4
2022-09-24T06:38:20.666Z,1.1
2022-09-24T06:39:30.427Z,1.2
2022-09-24T06:40:40.042Z,1.1
2022-09-24T06:41:47.635Z,0.8
2022-09-24T06:42:57.370Z,0.7
2022-09-24T06:44:07.024Z,1
2022-09-24T06:45:16.772Z,0.8
2022-09-24T06:46:26.501Z,0.9
2022-09-24T06:47:35.122Z,0.9
2022-09-24T06:48:43.778Z,0.8
2022-09-24T06:49:53.440Z,1
2022-09-24T06:51:01.092Z,0.9
2022-09-24T06:52:09.775Z,0.8
2022-09-24T06:53:19.576Z,0.8
2022-09-24T06:54:27.357Z,0.9
2022-09-24T06:55:37.432Z,0.7
2022-09-24T06:56:46.245Z,0.7
2022-09-24T06:57:56.163Z,0.7
2022-09-24T06:59:05.952Z,0.9
2022-09-24T07:00:14.763Z,0.8
2022-09-24T07:01:24.910Z,0.8
2022-09-24T07:02:34.804Z,0.8
2022-09-24T07:03:43.631Z,0.9
2022-09-24T07:04:50.398Z,0.9
2022-09-24T07:06:00.207Z,0.8
2022-09-24T07:07:09.134Z,1
2022-09-24T07:08:18.944Z,0.9
2022-09-24T07:09:28.803Z,1
2022-09-24T07:10:38.688Z,1.2
2022-09-24T07:11:47.575Z,0.9
2022-09-24T07:12:56.349Z,0.9
2022-09-24T07:14:03.092Z,0.7
2022-09-24T07:15:12.899Z,1
2022-09-24T07:16:20.873Z,0.9
2022-09-24T07:17:33.708Z,0.9
2022-09-24T07:18:39.278Z,0.9
2022-09-24T07:19:48.060Z,0.9
2022-09-24T07:20:57.944Z,1
2022-09-24T07:22:07.702Z,0.7
2022-09-24T07:23:16.407Z,0.8
2022-09-24T07:24:26.260Z,0.9
2022-09-24T07:25:35.017Z,1.2
2022-09-24T07:26:44.005Z,1.1
2022-09-24T07:27:53.812Z,1.2
2022-09-24T07:29:02.716Z,1
2022-09-24T07:30:12.399Z,1.1
2022-09-24T07:31:22.172Z,0.9
2022-09-24T07:32:32.410Z,1.2
2022-09-24T07:33:42.174Z,1.2
2022-09-24T07:34:51.018Z,1
2022-09-24T07:35:59.831Z,1.2
2022-09-24T07:37:09.545Z,1
2022-09-24T07:38:18.609Z,0.9
2022-09-24T07:39:28.495Z,1.1
2022-09-24T07:40:37.396Z,0.9
2022-09-24T07:41:47.142Z,1.2
2022-09-24T07:42:57.068Z,1.1
2022-09-24T07:44:04.914Z,1.1
2022-09-24T07:45:14.653Z,1.3
2022-09-24T07:46:24.576Z,1
2022-09-24T07:47:33.365Z,1.3
2022-09-24T07:48:43.268Z,1.1
2022-09-24T07:49:53.161Z,1.5
2022-09-24T07:51:02.086Z,1.4
2022-09-24T07:52:12.136Z,0.9
2022-09-24T07:53:20.301Z,1.1
2022-09-24T07:54:29.122Z,1.1
2022-09-24T07:55:39.093Z,1.3
2022-09-24T07:56:47.807Z,1.2
2022-09-24T07:57:57.804Z,1.2
2022-09-24T07:59:06.523Z,0.9
2022-09-24T08:00:14.337Z,1
2022-09-24T08:01:24.206Z,1.3
2022-09-24T08:02:33.207Z,1
2022-09-24T08:03:43.079Z,1.3
2022-09-24T08:04:54.428Z,1.2
2022-09-24T08:06:03.400Z,0.9
2022-09-24T08:07:13.212Z,1.1
2022-09-24T08:08:22.348Z,0.9
2022-09-24T08:09:31.260Z,0.9
2022-09-24T08:10:41.189Z,1
2022-09-24T08:11:50.208Z,0.8
2022-09-24T08:12:59.180Z,1.2
2022-09-24T08:14:09.311Z,2.2
2022-09-24T08:15:18.214Z,2
2022-09-24T08:16:28.135Z,2.1
2022-09-24T08:17:37.990Z,2.5
2022-09-24T08:18:47.036Z,2.5
2022-09-24T08:19:57.126Z,1.9
2022-09-24T08:21:05.717Z,2
2022-09-24T08:22:15.521Z,1.6
2022-09-24T08:23:25.513Z,1.5
2022-09-24T08:24:33.448Z,1.3
2022-09-24T08:25:43.301Z,1.2
2022-09-24T08:26:52.173Z,1.5
2022-09-24T08:28:01.194Z,1.2
2022-09-24T08:29:10.971Z,0.9
2022-09-24T08:30:21.010Z,1.1
2022-09-24T08:31:30.781Z,1.2
2022-09-24T08:32:40.562Z,1
2022-09-24T08:33:49.369Z,0.9
2022-09-24T08:34:59.295Z,0.8
2022-09-24T08:36:09.275Z,0.9
2022-09-24T08:37:18.149Z,1.4
2022-09-24T08:38:28.127Z,0.7
2022-09-24T08:39:37.942Z,0.9
2022-09-24T08:40:47.851Z,0.9
2022-09-24T08:41:57.745Z,1.1
2022-09-24T08:43:07.868Z,1.2
2022-09-24T08:44:24.409Z,1.5
2022-09-24T08:45:34.276Z,1.5
2022-09-24T08:46:43.193Z,1.3
2022-09-24T08:47:52.879Z,1.8
2022-09-24T08:49:01.813Z,1.3
2022-09-24T08:50:10.764Z,1.3
2022-09-24T08:51:19.529Z,0.9
2022-09-24T08:52:28.355Z,1.1
2022-09-24T08:53:38.332Z,1.1
2022-09-24T08:55:02.049Z,1.1
2022-09-24T08:56:13.765Z,1.4
2022-09-24T08:57:23.546Z,1.1
2022-09-24T08:58:32.411Z,0.9
2022-09-24T08:59:42.330Z,1
2022-09-24T09:00:52.225Z,1.2
2022-09-24T09:02:02.236Z,1.4
2022-09-24T09:03:11.149Z,1.2
2022-09-24T09:04:20.861Z,1.9
2022-09-24T09:05:28.584Z,1.6
2022-09-24T09:06:37.474Z,1.8
2022-09-24T09:07:47.264Z,1.6
2022-09-24T09:09:12.601Z,1.2
2022-09-24T09:10:08.217Z,1
2022-09-24T09:11:18.227Z,1.2
2022-09-24T09:12:25.897Z,1.1
2022-09-24T09:13:35.737Z,1.5
2022-09-24T09:14:45.473Z,0.9
2022-09-24T09:15:55.380Z,1.4
2022-09-24T09:17:05.185Z,1.2
2022-09-24T09:18:14.037Z,1.3
2022-09-24T09:19:23.833Z,1.2
2022-09-24T09:20:32.609Z,1.7
2022-09-24T09:21:41.357Z,1.2
2022-09-24T09:22:51.091Z,1.4
2022-09-24T09:24:00.013Z,1.3
2022-09-24T09:25:09.720Z,1.1
2022-09-24T09:26:19.420Z,1
2022-09-24T09:27:28.128Z,1.1
2022-09-24T09:28:38.834Z,1.4
2022-09-24T09:29:47.651Z,1.2
2022-09-24T09:30:57.454Z,1.4
2022-09-24T09:32:13.787Z,1.4
2022-09-24T09:33:22.505Z,1
2022-09-24T09:34:46.161Z,1
2022-09-24T09:35:55.952Z,1
2022-09-24T09:37:04.736Z,0.9
2022-09-24T09:38:14.541Z,0.9
2022-09-24T09:39:23.342Z,0.9
2022-09-24T09:40:33.165Z,1
2022-09-24T09:41:42.875Z,1.1
2022-09-24T09:42:50.658Z,1.1
2022-09-24T09:44:00.570Z,0.9
2022-09-24T09:45:10.334Z,1.1
2022-09-24T09:46:19.076Z,1.2
2022-09-24T09:47:35.699Z,1
2022-09-24T09:48:45.384Z,1
2022-09-24T09:49:54.189Z,1.1
2022-09-24T09:51:03.938Z,1.2
2022-09-24T09:52:12.704Z,1
2022-09-24T09:53:22.495Z,0.9
2022-09-24T09:54:32.245Z,1.1
2022-09-24T09:55:40.145Z,0.9
2022-09-24T09:56:49.900Z,1.3
2022-09-24T09:57:59.635Z,1
2022-09-24T09:59:07.404Z,1.2
2022-09-24T10:00:17.475Z,1.2
2022-09-24T10:01:26.202Z,0.9
2022-09-24T10:02:36.090Z,0.9
2022-09-24T10:03:46.539Z,0.9
2022-09-24T10:04:56.140Z,0.8
2022-09-24T10:06:05.861Z,1
2022-09-24T10:07:14.583Z,1.3
2022-09-24T10:08:24.415Z,1
2022-09-24T10:09:33.225Z,0.8
2022-09-24T10:10:40.983Z,0.8
2022-09-24T10:11:50.858Z,1
2022-09-24T10:13:00.607Z,1.1
2022-09-24T10:14:08.685Z,0.9
2022-09-24T10:15:18.427Z,0.9
2022-09-24T10:16:27.215Z,0.9
2022-09-24T10:17:36.987Z,1.2
2022-09-24T10:18:46.759Z,1.2
2022-09-24T10:19:55.709Z,1.1
2022-09-24T10:21:04.339Z,0.9
2022-09-24T10:22:14.120Z,0.9
2022-09-24T10:23:21.865Z,1
2022-09-24T10:24:31.671Z,0.7
2022-09-24T10:25:40.551Z,0.9
2022-09-24T10:26:48.428Z,1.3
2022-09-24T10:27:58.197Z,0.7
2022-09-24T10:29:06.998Z,0.9
2022-09-24T10:30:15.827Z,1
2022-09-24T10:31:25.609Z,0.8
2022-09-24T10:32:35.990Z,1.3
2022-09-24T10:33:45.746Z,1.3
2022-09-24T10:34:55.464Z,1.2
2022-09-24T10:36:03.215Z,1.3
2022-09-24T10:37:12.923Z,1.1
2022-09-24T10:38:22.717Z,1
2022-09-24T10:39:32.470Z,1.2
2022-09-24T10:40:42.289Z,1.3
2022-09-24T10:41:50.911Z,1.2
2022-09-24T10:43:00.709Z,0.7
2022-09-24T10:44:09.503Z,0.9
2022-09-24T10:45:19.222Z,1
2022-09-24T10:46:31.724Z,0.9
2022-09-24T10:47:40.378Z,0.9
2022-09-24T10:48:49.173Z,1
2022-09-24T10:49:58.976Z,0.6
2022-09-24T10:51:07.787Z,0.9
2022-09-24T10:52:17.512Z,0.8
2022-09-24T10:53:27.339Z,1
2022-09-24T10:54:35.089Z,1.3
2022-09-24T10:55:44.811Z,1.1
2022-09-24T10:56:54.513Z,0.9
2022-09-24T10:58:03.200Z,1.1
2022-09-24T10:59:11.947Z,1.1
2022-09-24T11:00:19.725Z,1
2022-09-24T11:01:31.232Z,1.3
2022-09-24T11:02:40.994Z,1.1
2022-09-24T11:03:49.620Z,1.2
2022-09-24T11:04:59.233Z,0.9
2022-09-24T11:06:08.988Z,1
2022-09-24T11:07:18.763Z,0.7
2022-09-24T11:08:29.137Z,1.1
2022-09-24T11:09:38.873Z,1.1
2022-09-24T11:10:47.627Z,0.7
2022-09-24T11:11:57.402Z,1
2022-09-24T11:13:05.143Z,0.9
2022-09-24T11:14:14.892Z,0.8
2022-09-24T11:15:24.698Z,0.9
2022-09-24T11:16:32.416Z,1.2
2022-09-24T11:17:42.149Z,1.1
2022-09-24T11:18:52.274Z,1
2022-09-24T11:20:00.748Z,1.8
2022-09-24T11:21:10.444Z,1.1
2022-09-24T11:22:20.134Z,1
2022-09-24T11:23:28.942Z,1
2022-09-24T11:24:38.620Z,1.3
2022-09-24T11:25:46.302Z,1.4
2022-09-24T11:26:55.968Z,1.3
2022-09-24T11:28:05.717Z,1.1
2022-09-24T11:29:14.561Z,1.1
2022-09-24T11:30:23.253Z,0.8
2022-09-24T11:31:31.988Z,1.4
2022-09-24T11:32:40.630Z,1.5
2022-09-24T11:33:50.344Z,1.3
2022-09-24T11:34:59.070Z,1.2
2022-09-24T11:36:08.857Z,1.1
2022-09-24T11:37:17.521Z,1.8
2022-09-24T11:38:27.197Z,1.1
2022-09-24T11:39:36.895Z,0.9
2022-09-24T11:40:45.702Z,1.1
2022-09-24T11:41:54.272Z,1.3
2022-09-24T11:43:03.947Z,1
2022-09-24T11:44:13.680Z,1
2022-09-24T11:45:23.305Z,1
2022-09-24T11:46:32.067Z,1
2022-09-24T11:47:40.702Z,0.9
2022-09-24T11:48:50.380Z,1
2022-09-24T11:49:58.071Z,1
2022-09-24T11:51:06.734Z,0.8
2022-09-24T11:52:15.414Z,0.8
2022-09-24T11:53:25.087Z,0.9
2022-09-24T11:54:34.797Z,0.8
2022-09-24T11:55:43.589Z,1
2022-09-24T11:56:53.197Z,0.8
2022-09-24T11:58:02.891Z,0.9
2022-09-24T11:59:12.568Z,1
2022-09-24T12:00:21.241Z,0.8
2022-09-24T12:01:30.972Z,1.2
2022-09-24T12:02:38.700Z,0.8
2022-09-24T12:03:48.389Z,0.9
2022-09-24T12:04:58.060Z,1.1
2022-09-24T12:06:05.722Z,0.9
2022-09-24T12:07:15.386Z,1.3
2022-09-24T12:08:24.067Z,1.1
2022-09-24T12:09:33.756Z,0.7
2022-09-24T12:10:43.401Z,0.7
2022-09-24T12:11:53.098Z,1.3
2022-09-24T12:13:02.773Z,1
2022-09-24T12:14:12.447Z,0.8
2022-09-24T12:15:21.131Z,0.8
2022-09-24T12:16:30.928Z,1.1
2022-09-24T12:17:38.523Z,0.8
2022-09-24T12:18:48.190Z,0.9
2022-09-24T12:19:57.876Z,0.9
2022-09-24T12:21:06.596Z,0.8
2022-09-24T12:22:18.130Z,0.7
2022-09-24T12:23:27.633Z,1.3
2022-09-24T12:24:37.360Z,1.1
2022-09-24T12:25:47.048Z,1
2022-09-24T12:27:05.681Z,0.9
2022-09-24T12:28:14.309Z,0.8
2022-09-24T12:29:23.997Z,0.9
2022-09-24T12:30:30.626Z,1.1
2022-09-24T12:31:38.338Z,1
2022-09-24T12:32:48.040Z,1
2022-09-24T12:33:55.691Z,1.3
2022-09-24T12:35:04.430Z,0.8
2022-09-24T12:36:14.091Z,0.8
2022-09-24T12:37:22.779Z,1
2022-09-24T12:38:32.603Z,1
2022-09-24T12:39:41.251Z,1.1
2022-09-24T12:40:49.969Z,1.2
2022-09-24T12:41:59.635Z,0.8
2022-09-24T12:43:09.351Z,0.8
2022-09-24T12:44:22.046Z,1.2
2022-09-24T12:45:27.728Z,0.9
2022-09-24T12:46:36.485Z,1.1
2022-09-24T12:47:46.199Z,1.3
2022-09-24T12:48:55.839Z,0.9
2022-09-24T12:50:03.537Z,1.1
2022-09-24T12:51:13.214Z,1.2
2022-09-24T12:52:21.913Z,1.4
2022-09-24T12:53:29.572Z,1
2022-09-24T12:54:39.288Z,0.9
2022-09-24T12:55:47.992Z,1.3
2022-09-24T12:56:57.687Z,1.1
2022-09-24T12:58:07.351Z,1
2022-09-24T12:59:16.044Z,1
2022-09-24T13:00:25.689Z,0.9
2022-09-24T13:01:35.562Z,0.9
2022-09-24T13:02:43.289Z,1.1
2022-09-24T13:03:52.739Z,1.1
2022-09-24T13:05:01.429Z,1.1
2022-09-24T13:06:10.093Z,1.2
2022-09-24T13:07:19.819Z,1
2022-09-24T13:08:28.499Z,0.9
2022-09-24T13:09:38.223Z,0.8
2022-09-24T13:10:47.889Z,0.7
2022-09-24T13:11:57.597Z,1.1
2022-09-24T13:13:07.289Z,0.8
2022-09-24T13:14:15.955Z,0.9
2022-09-24T13:15:28.127Z,0.9
2022-09-24T13:16:36.290Z,0.8
2022-09-24T13:17:45.971Z,1.1
2022-09-24T13:18:54.658Z,1
2022-09-24T13:20:04.348Z,0.9
2022-09-24T13:21:13.012Z,1.1
2022-09-24T13:22:22.749Z,1.2
2022-09-24T13:23:31.459Z,1.1
2022-09-24T13:24:39.175Z,1.4
2022-09-24T13:25:48.905Z,1
2022-09-24T13:27:05.634Z,1.1
2022-09-24T13:28:14.302Z,1.8
2022-09-24T13:29:23.976Z,1.3
2022-09-24T13:30:32.720Z,1.6
2022-09-24T13:31:41.494Z,1.1
2022-09-24T13:32:51.108Z,1.4
2022-09-24T13:33:59.846Z,1.3
2022-09-24T13:35:08.534Z,1.4
2022-09-24T13:36:18.218Z,1.2
2022-09-24T13:37:26.894Z,1
2022-09-24T13:38:36.606Z,1.1
2022-09-24T13:39:46.249Z,1.7
2022-09-24T13:40:53.959Z,1.1
2022-09-24T13:42:03.645Z,0.7
2022-09-24T13:43:11.333Z,1
2022-09-24T13:44:20.016Z,0.9
2022-09-24T13:45:29.724Z,0.8
2022-09-24T13:46:38.465Z,1
2022-09-24T13:47:48.114Z,0.8
2022-09-24T13:48:57.793Z,1
2022-09-24T13:50:05.455Z,0.8
2022-09-24T13:51:15.115Z,0.9
2022-09-24T13:52:22.765Z,0.8
2022-09-24T13:53:32.436Z,1
2022-09-24T13:54:42.168Z,1
2022-09-24T13:55:50.815Z,0.9
2022-09-24T13:57:00.482Z,0.9
2022-09-24T13:58:10.143Z,1.3
2022-09-24T13:59:18.862Z,1.3
2022-09-24T14:00:28.564Z,0.9
2022-09-24T14:01:37.278Z,1
2022-09-24T14:02:45.995Z,1.2
2022-09-24T14:03:53.607Z,1
2022-09-24T14:05:01.355Z,0.9
2022-09-24T14:06:12.032Z,0.7
2022-09-24T14:07:19.692Z,1
2022-09-24T14:08:27.366Z,1
2022-09-24T14:09:37.041Z,0.6
2022-09-24T14:10:46.725Z,1.2
2022-09-24T14:11:55.400Z,1.7
2022-09-24T14:13:05.064Z,4.7
2022-09-24T14:14:13.723Z,5.3
2022-09-24T14:15:22.418Z,5.3
2022-09-24T14:16:32.179Z,4.2
2022-09-24T14:17:39.753Z,3.2
2022-09-24T14:18:49.473Z,2.2
2022-09-24T14:19:58.156Z,1.5
2022-09-24T14:21:06.887Z,1.8
2022-09-24T14:22:16.600Z,1.1
2022-09-24T14:23:26.255Z,1.4
2022-09-24T14:24:35.916Z,0.9
2022-09-24T14:25:44.616Z,0.8
2022-09-24T14:26:52.256Z,1.1
2022-09-24T14:28:01.931Z,0.7
2022-09-24T14:29:09.672Z,1
2022-09-24T14:30:19.246Z,1
2022-09-24T14:31:28.994Z,1
2022-09-24T14:32:36.603Z,1.1
2022-09-24T14:33:46.318Z,1.4
2022-09-24T14:34:56.013Z,1.2
2022-09-24T14:36:04.636Z,0.9
2022-09-24T14:37:14.309Z,0.8
2022-09-24T14:38:23.975Z,0.8
2022-09-24T14:39:32.683Z,0.9
2022-09-24T14:40:42.540Z,1.2
2022-09-24T14:41:50.021Z,1.3
2022-09-24T14:42:59.685Z,1.2
2022-09-24T14:44:09.365Z,1
2022-09-24T14:45:18.053Z,1
2022-09-24T14:46:28.788Z,0.9
2022-09-24T14:47:36.419Z,0.9
2022-09-24T14:48:46.189Z,0.9
2022-09-24T14:49:55.851Z,1.3
2022-09-24T14:51:04.628Z,0.7
2022-09-24T14:52:14.319Z,1
2022-09-24T14:53:23.997Z,1.2
2022-09-24T14:54:31.648Z,1.2
2022-09-24T14:55:40.313Z,0.9
2022-09-24T14:56:50.005Z,1.2
2022-09-24T14:57:59.651Z,1
2022-09-24T14:59:09.365Z,0.7
2022-09-24T15:00:18.015Z,0.9
2022-09-24T15:01:26.725Z,0.9
2022-09-24T15:02:36.427Z,0.9
2022-09-24T15:03:44.100Z,1
2022-09-24T15:04:53.825Z,1.2
2022-09-24T15:06:03.430Z,0.8
2022-09-24T15:07:12.153Z,0.9
2022-09-24T15:08:21.807Z,0.8
2022-09-24T15:09:31.577Z,1
2022-09-24T15:10:40.245Z,0.8
2022-09-24T15:11:49.912Z,1.1
2022-09-24T15:12:59.591Z,0.9
2022-09-24T15:14:08.307Z,0.8
2022-09-24T15:15:17.987Z,0.9
2022-09-24T15:16:25.723Z,0.9
2022-09-24T15:17:35.365Z,1
2022-09-24T15:18:44.016Z,0.9
2022-09-24T15:19:52.793Z,0.7
2022-09-24T15:21:02.464Z,1.1
2022-09-24T15:22:12.196Z,0.7
2022-09-24T15:23:20.902Z,0.8
2022-09-24T15:24:30.559Z,0.8
2022-09-24T15:25:38.298Z,0.8
2022-09-24T15:26:48.098Z,0.9
2022-09-24T15:27:56.761Z,0.9
2022-09-24T15:29:04.455Z,1.3
2022-09-24T15:30:14.138Z,1.4
2022-09-24T15:31:21.917Z,1.2
2022-09-24T15:32:30.542Z,1.4
2022-09-24T15:33:40.248Z,1.5
2022-09-24T15:34:47.918Z,1.5
2022-09-24T15:35:57.592Z,1.1
2022-09-24T15:37:07.315Z,1
2022-09-24T15:38:14.965Z,1.4
2022-09-24T15:39:24.757Z,1
2022-09-24T15:40:32.329Z,1.4
2022-09-24T15:41:40.967Z,1.2
2022-09-24T15:42:50.678Z,1
2022-09-24T15:43:58.365Z,1.1
2022-09-24T15:45:08.028Z,1.1
2022-09-24T15:46:17.745Z,1.2
2022-09-24T15:47:26.370Z,0.9
2022-09-24T15:48:36.242Z,1
2022-09-24T15:49:44.900Z,1.2
2022-09-24T15:50:53.576Z,1.1
2022-09-24T15:52:03.245Z,1.4
2022-09-24T15:53:10.899Z,1.2
2022-09-24T15:54:19.608Z,1.5
2022-09-24T15:55:28.301Z,1.2
2022-09-24T15:56:41.069Z,1.5
2022-09-24T15:57:48.742Z,1.5
2022-09-24T15:58:58.415Z,1.3
2022-09-24T16:00:07.126Z,1.4
2022-09-24T16:01:16.923Z,1.3
2022-09-24T16:02:25.528Z,1.8
2022-09-24T16:03:35.186Z,2.1
2022-09-24T16:04:44.859Z,1.8
2022-09-24T16:05:52.552Z,1.4